Time;durP1;ratioP1;P1;durP2;ratioP2;P2;SDS_P1;SDS_P2;PMS_P1;PMS_P2;Temp;Humidity;BMP_temperature;BMP_pressure;BME280_temperature;BME280_humidity;BME280_pressure;Samples;Min_cycle;Max_cycle;Signal;HPM_P1;HPM_P2
2022/01/29 00:00:22;;;;;;;19.08;3.95;;;;;;;7.61;100.00;102652.38;5070745;28;20048;-37
2022/01/29 00:02:49;;;;;;;22.73;4.05;;;;;;;7.57;100.00;102657.59;5070101;28;20048;-33
2022/01/29 00:05:17;;;;;;;23.95;4.15;;;;;;;7.59;100.00;102643.47;5070921;28;20071;-39
2022/01/29 00:07:45;;;;;;;22.35;4.20;;;;;;;7.61;100.00;102646.84;5070056;28;20057;-35
2022/01/29 00:10:14;;;;;;;20.38;4.45;;;;;;;7.64;100.00;102642.75;5069854;28;20055;-33
2022/01/29 00:12:43;;;;;;;27.65;4.20;;;;;;;7.65;100.00;102639.72;5070543;28;20062;-33
2022/01/29 00:15:12;;;;;;;19.65;4.15;;;;;;;7.64;100.00;102634.41;5071137;28;20055;-34
2022/01/29 00:17:39;;;;;;;23.42;4.32;;;;;;;7.66;100.00;102641.44;5074475;28;20052;-37
2022/01/29 00:20:09;;;;;;;21.17;4.00;;;;;;;7.66;100.00;102633.09;5074057;28;20074;-39
2022/01/29 00:22:37;;;;;;;27.60;4.78;;;;;;;7.64;100.00;102635.25;5073348;28;20044;-38
2022/01/29 00:25:05;;;;;;;26.02;4.68;;;;;;;7.65;100.00;102625.00;5074010;28;20055;-35
2022/01/29 00:27:35;;;;;;;21.45;4.60;;;;;;;7.66;100.00;102624.75;5073323;28;20408;-38
2022/01/29 00:30:09;;;;;;;24.67;4.72;;;;;;;7.68;100.00;102628.16;5073268;28;20102;-34
2022/01/29 00:32:37;;;;;;;26.70;5.25;;;;;;;7.68;100.00;102621.75;5074209;28;20044;-32
2022/01/29 00:35:06;;;;;;;24.55;4.88;;;;;;;7.72;100.00;102614.63;5073914;28;20044;-33
2022/01/29 00:37:34;;;;;;;21.98;5.03;;;;;;;7.70;100.00;102612.09;5073554;28;20047;-31
2022/01/29 00:40:03;;;;;;;26.17;4.85;;;;;;;7.71;100.00;102608.22;5073902;28;20059;-29
2022/01/29 00:42:31;;;;;;;20.92;4.53;;;;;;;7.72;100.00;102598.81;5073712;28;20043;-34
2022/01/29 00:44:58;;;;;;;23.75;5.22;;;;;;;7.71;100.00;102597.13;5073465;28;20489;-36
2022/01/29 00:47:29;;;;;;;28.05;5.50;;;;;;;7.71;100.00;102602.66;5073634;28;20080;-36
2022/01/29 00:49:57;;;;;;;23.25;5.28;;;;;;;7.72;100.00;102598.81;5074029;28;20044;-34
2022/01/29 00:52:24;;;;;;;27.83;5.40;;;;;;;7.69;100.00;102590.94;5073255;28;20481;-35
2022/01/29 00:54:52;;;;;;;25.48;5.22;;;;;;;7.66;100.00;102602.53;5073709;28;20047;-37
2022/01/29 00:57:20;;;;;;;20.48;5.07;;;;;;;7.66;100.00;102596.13;5073589;28;20059;-32
2022/01/29 00:59:48;;;;;;;24.48;6.03;;;;;;;7.65;100.00;102602.75;5073302;28;20048;-29
2022/01/29 01:02:16;;;;;;;26.08;6.05;;;;;;;7.59;100.00;102582.34;5073691;28;20405;-37
2022/01/29 01:04:45;;;;;;;21.27;5.60;;;;;;;7.58;100.00;102581.50;5072626;28;20863;-34
2022/01/29 01:07:12;;;;;;;23.80;5.70;;;;;;;7.57;100.00;102578.97;5073641;28;20070;-32
2022/01/29 01:09:40;;;;;;;21.83;5.72;;;;;;;7.55;100.00;102573.66;5073130;28;20497;-31
2022/01/29 01:12:09;;;;;;;24.55;5.97;;;;;;;7.52;100.00;102576.03;5072948;28;20029;-37
2022/01/29 01:14:37;;;;;;;24.63;5.55;;;;;;;7.52;100.00;102574.13;5073363;28;20433;-31
2022/01/29 01:17:04;;;;;;;28.65;6.00;;;;;;;7.49;100.00;102568.19;5073032;28;20073;-33
2022/01/29 01:19:32;;;;;;;28.23;5.60;;;;;;;7.48;100.00;102574.81;5072426;28;20493;-33
2022/01/29 01:22:02;;;;;;;23.05;5.72;;;;;;;7.48;100.00;102563.72;5073388;28;20409;-31
2022/01/29 01:24:29;;;;;;;28.00;6.13;;;;;;;7.47;100.00;102567.56;5073273;28;20040;-37
2022/01/29 01:26:58;;;;;;;26.88;5.63;;;;;;;7.47;100.00;102567.56;5071092;28;20067;-40
2022/01/29 01:29:25;;;;;;;25.70;5.95;;;;;;;7.50;100.00;102555.97;5063506;28;20045;-36
2022/01/29 01:31:54;;;;;;;27.40;6.18;;;;;;;7.53;100.00;102544.41;5073169;28;20147;-34
2022/01/29 01:34:24;;;;;;;20.45;5.10;;;;;;;7.53;100.00;102550.81;5072189;28;20196;-33
2022/01/29 01:37:00;;;;;;;27.40;6.25;;;;;;;7.56;100.00;102543.94;5073031;28;20135;-34
2022/01/29 01:39:33;;;;;;;25.88;6.10;;;;;;;7.59;100.00;102543.47;5072779;28;20048;-34
2022/01/29 01:42:05;;;;;;;19.40;5.50;;;;;;;7.59;100.00;102537.91;5071805;28;20144;-33
2022/01/29 01:44:37;;;;;;;27.70;6.57;;;;;;;7.62;100.00;102542.97;5072960;28;20055;-30
2022/01/29 01:47:06;;;;;;;22.63;6.53;;;;;;;7.63;100.00;102539.09;5071748;28;20412;-36
2022/01/29 01:49:34;;;;;;;28.90;7.00;;;;;;;7.65;100.00;102534.16;5072637;28;20051;-34
2022/01/29 01:52:02;;;;;;;23.67;6.38;;;;;;;7.62;100.00;102531.84;5072736;28;20044;-37
2022/01/29 01:54:31;;;;;;;23.42;5.70;;;;;;;7.64;100.00;102521.34;5071741;28;20105;-34
2022/01/29 01:57:00;;;;;;;28.40;6.85;;;;;;;7.64;100.00;102532.47;5072660;28;20055;-31
2022/01/29 01:59:28;;;;;;;24.02;6.63;;;;;;;7.64;100.00;102526.91;5072344;28;20053;-31
2022/01/29 02:01:56;;;;;;;22.73;6.63;;;;;;;7.63;100.00;102502.97;5071765;28;20094;-35
2022/01/29 02:04:24;;;;;;;26.67;6.47;;;;;;;7.64;100.00;102512.16;5072347;28;20048;-36
2022/01/29 02:06:53;;;;;;;23.88;6.95;;;;;;;7.63;100.00;102502.13;5071290;28;20098;-33
2022/01/29 02:09:24;;;;;;;28.90;7.40;;;;;;;7.62;100.00;102498.50;5070144;28;20505;-39
2022/01/29 02:11:55;;;;;;;26.77;7.13;;;;;;;7.63;100.00;102507.69;5071967;28;20056;-32
2022/01/29 02:14:27;;;;;;;24.73;6.28;;;;;;;7.65;100.00;102503.59;5072389;28;20048;-33
2022/01/29 02:16:55;;;;;;;;;;;;;;;7.62;100.00;102501.28;5071700;28;20584;-36
2022/01/29 02:19:23;;;;;;;21.45;6.25;;;;;;;7.60;100.00;102506.22;5071967;28;19943;-33
2022/01/29 02:21:52;;;;;;;23.58;7.43;;;;;;;7.65;100.00;102500.81;5071466;28;20052;-32
2022/01/29 02:24:20;;;;;;;23.10;6.70;;;;;;;7.67;100.00;102495.03;5070781;28;20127;-36
2022/01/29 02:26:48;;;;;;;24.50;7.38;;;;;;;7.72;100.00;102500.72;5071791;28;20048;-32
2022/01/29 02:29:16;;;;;;;27.25;6.88;;;;;;;7.75;100.00;102495.53;5069847;28;20045;-34
2022/01/29 02:31:48;;;;;;;27.77;7.50;;;;;;;7.78;100.00;102494.19;5071469;28;20127;-35
2022/01/29 02:34:16;;;;;;;27.40;7.40;;;;;;;7.78;100.00;102483.94;5071996;28;20076;-39
2022/01/29 02:36:44;;;;;;;31.52;6.97;;;;;;;7.77;100.00;102476.69;5070950;28;20857;-33
2022/01/29 02:39:16;;;;;;;26.63;7.45;;;;;;;7.80;100.00;102476.16;5071621;28;20055;-39
2022/01/29 02:41:44;;;;;;;30.77;7.43;;;;;;;7.79;100.00;102477.28;5071661;28;20430;-33
2022/01/29 02:44:16;;;;;;;21.08;6.40;;;;;;;7.80;100.00;102476.16;5070773;28;20041;-31
2022/01/29 02:46:53;;;;;;;25.95;6.85;;;;;;;7.82;100.00;102470.38;5071732;28;20391;-32
2022/01/29 02:49:24;;;;;;;22.35;6.50;;;;;;;7.84;100.00;102466.28;5071685;28;20079;-37
2022/01/29 02:51:53;;;;;;;28.42;7.13;;;;;;;7.85;100.00;102459.63;5070913;28;20457;-40
2022/01/29 02:54:24;;;;;;;28.50;7.80;;;;;;;7.87;100.00;102453.81;5071346;28;20055;-37
2022/01/29 02:56:53;;;;;;;24.33;6.95;;;;;;;7.85;100.00;102450.44;5071344;28;20515;-37
2022/01/29 02:59:20;;;;;;;23.42;7.32;;;;;;;7.84;100.00;102446.81;5071402;28;20067;-32
2022/01/29 03:01:48;;;;;;;29.23;7.68;;;;;;;7.86;100.00;102446.56;5071476;28;20086;-35
2022/01/29 03:04:16;;;;;;;25.52;7.45;;;;;;;7.91;100.00;102435.59;5070394;28;20568;-39
2022/01/29 03:06:44;;;;;;;24.08;7.07;;;;;;;7.92;100.00;102442.84;5071175;28;20565;-35
2022/01/29 03:09:12;;;;;;;27.80;7.43;;;;;;;7.92;100.00;102424.22;5071332;28;20048;-36
2022/01/29 03:11:41;;;;;;;22.75;7.38;;;;;;;7.94;100.00;102424.84;5070702;28;20053;-34
2022/01/29 03:14:09;;;;;;;21.45;6.57;;;;;;;7.94;100.00;102424.00;5071266;28;20048;-32
2022/01/29 03:16:36;;;;;;;27.10;7.70;;;;;;;7.96;100.00;102424.59;5071336;28;20046;-31
2022/01/29 03:19:04;;;;;;;27.65;8.15;;;;;;;7.98;100.00;102427.13;5070111;28;20167;-35
2022/01/29 03:21:32;;;;;;;31.65;7.70;;;;;;;7.97;100.00;102417.09;5071033;28;20047;-37
2022/01/29 03:24:00;;;;;;;24.48;7.05;;;;;;;7.98;100.00;102410.44;5070760;28;20074;-36
2022/01/29 03:26:27;;;;;;;23.52;7.53;;;;;;;7.97;100.00;102400.41;5069549;28;20146;-41
2022/01/29 03:28:59;;;;;;;24.30;7.65;;;;;;;8.00;100.00;102397.13;5071205;28;20045;-36
2022/01/29 03:31:28;;;;;;;34.97;8.20;;;;;;;7.97;100.00;102401.25;5071056;28;20047;-37
2022/01/29 03:33:56;;;;;;;24.42;7.82;;;;;;;7.99;100.00;102403.81;5070141;28;20135;-37
2022/01/29 03:36:24;;;;;;;29.23;8.13;;;;;;;8.00;100.00;102400.75;5070775;28;20060;-33
2022/01/29 03:38:51;;;;;;;26.42;7.85;;;;;;;8.00;100.00;102397.13;5071099;28;20066;-31
2022/01/29 03:41:19;;;;;;;27.05;8.52;;;;;;;8.00;100.00;102405.47;5070126;28;20059;-35
2022/01/29 03:43:51;;;;;;;26.70;7.70;;;;;;;7.99;100.00;102398.25;5070522;28;20590;-35
2022/01/29 03:46:20;;;;;;;24.83;7.68;;;;;;;8.00;100.00;102394.34;5070013;28;20051;-36
2022/01/29 03:48:48;;;;;;;30.92;8.80;;;;;;;7.99;100.00;102395.47;5069391;28;20067;-31
2022/01/29 03:51:16;;;;;;;21.90;7.78;;;;;;;8.03;100.00;102388.31;5073797;28;20120;-35
2022/01/29 03:53:43;;;;;;;26.00;7.72;;;;;;;8.03;100.00;102383.59;5074201;28;20051;-32
2022/01/29 03:56:11;;;;;;;27.05;7.57;;;;;;;8.04;100.00;102368.59;5075060;28;20054;-37
2022/01/29 03:58:39;;;;;;;21.42;7.80;;;;;;;8.04;100.00;102364.97;5074661;28;20040;-33
2022/01/29 04:01:07;;;;;;;25.33;8.52;;;;;;;8.09;100.00;102365.09;5073789;28;20052;-37
2022/01/29 04:03:36;;;;;;;23.30;8.55;;;;;;;8.12;100.00;102361.81;5074450;28;20693;-36
2022/01/29 04:06:04;;;;;;;25.33;8.13;;;;;;;8.16;100.00;102371.38;5074809;28;20052;-31
2022/01/29 04:08:39;;;;;;;26.10;8.00;;;;;;;8.15;100.00;102367.75;5073616;28;20418;-35
2022/01/29 04:11:08;;;;;;;21.88;8.18;;;;;;;8.17;100.00;102368.34;5074514;28;20047;-34
2022/01/29 04:13:37;;;;;;;23.73;7.72;;;;;;;8.19;100.00;102357.78;5063797;28;20052;-33
2022/01/29 04:16:05;;;;;;;23.38;7.40;;;;;;;8.19;100.00;102356.97;5073182;28;20053;-38
2022/01/29 04:18:33;;;;;;;22.67;7.47;;;;;;;8.21;100.00;102360.31;5074768;28;20052;-31
2022/01/29 04:21:04;;;;;;;26.90;8.65;;;;;;;8.23;100.00;102364.56;5074070;28;20139;-34
2022/01/29 04:23:32;;;;;;;20.13;7.60;;;;;;;8.23;100.00;102369.28;5070603;28;20382;-37
2022/01/29 04:26:01;;;;;;;26.85;7.82;;;;;;;8.24;100.00;102362.63;5073551;28;20055;-31
2022/01/29 04:28:33;;;;;;;26.73;9.07;;;;;;;8.25;100.00;102367.94;5071204;28;20045;-33
2022/01/29 04:31:06;;;;;;;26.42;8.15;;;;;;;8.28;100.00;102353.53;5074293;28;20485;-35
2022/01/29 04:33:34;;;;;;;22.27;8.00;;;;;;;8.26;100.00;102349.31;5074306;28;20132;-36
2022/01/29 04:36:06;;;;;;;23.15;8.18;;;;;;;8.28;100.00;102341.56;5073324;28;20467;-37
2022/01/29 04:38:34;;;;;;;21.73;8.52;;;;;;;8.33;100.00;102338.09;5074071;28;20394;-37
2022/01/29 04:41:04;;;;;;;25.25;8.38;;;;;;;8.33;100.00;102329.75;5074326;28;20124;-33
2022/01/29 04:43:32;;;;;;;21.02;7.85;;;;;;;8.33;100.00;102333.38;5073406;28;20058;-33
2022/01/29 04:46:06;;;;;;;23.52;7.75;;;;;;;8.33;100.00;102321.41;5073974;28;20444;-33
2022/01/29 04:48:34;;;;;;;22.38;7.60;;;;;;;8.33;100.00;102322.25;5073854;28;20053;-36
2022/01/29 04:51:03;;;;;;;26.08;8.18;;;;;;;8.33;100.00;102313.91;5072684;28;20508;-34
2022/01/29 04:53:31;;;;;;;30.30;8.95;;;;;;;8.32;100.00;102315.00;5073385;28;20242;-33
2022/01/29 04:55:58;;;;;;;22.67;8.27;;;;;;;8.30;100.00;102306.84;5073733;28;20049;-34
2022/01/29 04:58:26;;;;;;;25.83;7.13;;;;;;;8.30;100.00;102306.84;5072379;28;20087;-31
2022/01/29 05:00:54;;;;;;;22.40;7.95;;;;;;;8.32;100.00;102316.91;5073287;28;20059;-34
2022/01/29 05:03:27;;;;;;;26.15;8.35;;;;;;;8.33;100.00;102315.84;5073084;28;20052;-33
2022/01/29 05:05:55;;;;;;;24.35;7.40;;;;;;;8.34;100.00;102323.09;5071167;28;20040;-34
2022/01/29 05:08:24;;;;;;;23.48;7.38;;;;;;;8.33;100.00;102313.91;5071806;28;20061;-32
2022/01/29 05:10:53;;;;;;;24.13;7.65;;;;;;;8.34;100.00;102311.97;5072316;28;20086;-37
2022/01/29 05:13:25;;;;;;;22.38;7.57;;;;;;;8.32;100.00;102309.44;5073105;28;20052;-36
2022/01/29 05:16:06;;;;;;;21.05;7.75;;;;;;;8.30;100.00;102308.78;5073331;28;20080;-38
2022/01/29 05:26:56;;;;;;;27.60;8.32;;;;;;;8.23;100.00;102306.16;5071177;28;20110;-38
2022/01/29 05:29:26;;;;;;;22.05;7.47;;;;;;;8.25;100.00;102303.13;5073357;28;20047;-38
2022/01/29 05:31:54;;;;;;;22.75;7.15;;;;;;;8.25;100.00;102301.19;5072240;28;20055;-36
2022/01/29 05:34:23;;;;;;;24.98;7.75;;;;;;;8.28;100.00;102308.19;5073084;28;20470;-35
2022/01/29 05:36:51;;;;;;;27.13;7.60;;;;;;;8.28;100.00;102303.47;5072990;28;20067;-37
2022/01/29 05:39:21;;;;;;;30.38;8.35;;;;;;;8.26;100.00;102300.09;5071900;28;20095;-36
2022/01/29 05:41:49;;;;;;;26.63;7.28;;;;;;;8.26;100.00;102296.47;5073084;28;20074;-36
2022/01/29 05:44:17;;;;;;;25.63;7.03;;;;;;;8.24;100.00;102293.09;5072917;28;20036;-32
2022/01/29 05:46:45;;;;;;;28.45;8.30;;;;;;;8.26;100.00;102288.97;5072081;28;20139;-35
2022/01/29 05:49:12;;;;;;;27.58;7.65;;;;;;;8.27;100.00;102287.03;5072457;28;20138;-34
2022/01/29 05:51:40;;;;;;;27.83;7.60;;;;;;;8.27;100.00;102273.13;5072763;28;20045;-39
2022/01/29 05:54:08;;;;;;;22.50;7.22;;;;;;;8.25;100.00;102281.72;5071551;28;20055;-34
2022/01/29 05:56:37;;;;;;;24.30;7.10;;;;;;;8.28;100.00;102264.53;5069484;28;20044;-36
2022/01/29 05:59:05;;;;;;;23.00;6.47;;;;;;;8.30;100.00;102278.22;5072507;28;20064;-35
2022/01/29 06:01:33;;;;;;;21.73;6.47;;;;;;;8.29;100.00;102262.63;5071488;28;20041;-35
2022/01/29 06:04:01;;;;;;;20.42;6.32;;;;;;;8.26;100.00;102250.03;5072471;28;20055;-35
2022/01/29 06:06:29;;;;;;;25.90;7.22;;;;;;;8.27;100.00;102257.28;5072071;28;20060;-37
2022/01/29 06:08:56;;;;;;;25.17;6.80;;;;;;;8.26;100.00;102250.03;5071234;28;20395;-37
2022/01/29 06:11:24;;;;;;;19.90;6.25;;;;;;;8.29;100.00;102251.50;5072528;28;20548;-35
2022/01/29 06:13:53;;;;;;;23.45;6.50;;;;;;;8.25;100.00;102248.34;5071116;28;20052;-35
2022/01/29 06:16:21;;;;;;;29.48;7.28;;;;;;;8.22;100.00;102243.28;5071911;28;20040;-39
2022/01/29 06:18:49;;;;;;;23.92;6.70;;;;;;;8.24;100.00;102245.81;5071832;28;20048;-39
2022/01/29 06:21:16;;;;;;;24.42;6.38;;;;;;;8.22;100.00;102243.28;5071511;28;20055;-35
2022/01/29 06:23:44;;;;;;;23.65;6.88;;;;;;;8.18;100.00;102246.84;5071935;28;20037;-33
2022/01/29 06:26:14;;;;;;;22.65;6.45;;;;;;;8.16;100.00;102237.91;5071882;28;20062;-36
2022/01/29 06:28:41;;;;;;;24.30;5.95;;;;;;;8.17;100.00;102234.03;5071205;28;20049;-33
2022/01/29 06:31:11;;;;;;;25.88;6.47;;;;;;;8.13;100.00;102217.00;5071570;28;20501;-32
2022/01/29 06:33:39;;;;;;;24.35;6.43;;;;;;;8.14;100.00;102220.63;5071926;28;20059;-40
2022/01/29 06:36:07;;;;;;;24.05;6.07;;;;;;;8.14;100.00;102217.84;5070944;28;20048;-32
2022/01/29 06:38:35;;;;;;;33.45;7.03;;;;;;;8.10;100.00;102216.66;5071743;28;20057;-35
2022/01/29 06:41:04;;;;;;;25.75;6.47;;;;;;;8.07;100.00;102228.25;5071386;28;20131;-35
2022/01/29 06:43:31;;;;;;;29.05;6.05;;;;;;;8.03;100.00;102215.94;5070959;28;20092;-35
2022/01/29 06:46:00;;;;;;;26.00;6.13;;;;;;;7.95;100.00;102223.63;5071519;28;20044;-29
2022/01/29 06:48:29;;;;;;;24.45;6.63;;;;;;;7.99;100.00;102217.56;5071123;28;20046;-37
2022/01/29 06:50:57;;;;;;;23.25;5.95;;;;;;;7.99;100.00;102209.22;5069905;28;20066;-34
2022/01/29 06:53:25;;;;;;;21.63;5.40;;;;;;;8.01;100.00;102201.44;5069989;28;20048;-33
2022/01/29 06:55:53;;;;;;;20.48;5.40;;;;;;;8.03;100.00;102197.34;5071198;28;20048;-33
2022/01/29 06:58:20;;;;;;;26.52;6.40;;;;;;;8.04;100.00;102201.81;5068904;28;20056;-34
2022/01/29 07:01:08;;;;;;;28.95;5.53;;;;;;;8.04;100.00;102199.03;5071173;28;20041;-35
2022/01/29 07:03:38;;;;;;;28.35;6.18;;;;;;;8.07;100.00;102194.91;5069599;28;20048;-39
2022/01/29 07:06:06;;;;;;;22.73;4.93;;;;;;;8.08;100.00;102203.00;5070512;28;20044;-38
2022/01/29 07:08:37;;;;;;;29.25;6.00;;;;;;;8.09;100.00;102203.84;5069643;28;20068;-31
2022/01/29 07:11:05;;;;;;;27.50;6.22;;;;;;;8.09;100.00;102198.28;5069099;28;20045;-35
2022/01/29 07:13:34;;;;;;;26.13;6.20;;;;;;;8.07;100.00;102201.31;5070117;28;20052;-36
2022/01/29 07:16:02;;;;;;;27.40;6.30;;;;;;;8.06;100.00;102205.19;5069980;28;20500;-33
2022/01/29 07:18:30;;;;;;;27.23;5.43;;;;;;;8.10;100.00;102202.75;5068724;28;20058;-37
2022/01/29 07:20:59;;;;;;;24.27;5.85;;;;;;;8.09;100.00;102214.97;5069136;28;20054;-35
2022/01/29 07:23:33;;;;;;;24.48;5.00;;;;;;;8.14;100.00;102209.50;5069010;28;20492;-30
2022/01/29 07:26:00;;;;;;;20.38;4.65;;;;;;;8.15;100.00;102195.34;5067330;28;20064;-35
2022/01/29 07:28:28;;;;;;;21.67;5.47;;;;;;;8.15;100.00;102208.41;5066977;28;20492;-32
2022/01/29 07:30:57;;;;;;;31.85;5.70;;;;;;;8.12;100.00;102206.97;5068792;28;20048;-37
2022/01/29 07:33:25;;;;;;;24.38;4.93;;;;;;;8.14;100.00;102190.88;5067720;28;20131;-33
2022/01/29 07:35:52;;;;;;;23.38;4.78;;;;;;;8.13;100.00;102188.34;5069240;28;20056;-33
2022/01/29 07:38:21;;;;;;;22.00;5.13;;;;;;;8.16;100.00;102187.84;5069176;28;20053;-36
2022/01/29 07:40:49;;;;;;;23.17;5.10;;;;;;;8.14;100.00;102190.03;5069650;28;20040;-33
2022/01/29 07:43:17;;;;;;;26.98;4.88;;;;;;;8.11;100.00;102193.31;5069433;28;20040;-39
2022/01/29 07:45:45;;;;;;;23.77;4.55;;;;;;;8.15;100.00;102184.22;5069073;28;20389;-36
2022/01/29 07:48:13;;;;;;;23.42;4.90;;;;;;;8.13;100.00;102194.75;5068396;28;20493;-31
2022/01/29 07:50:40;;;;;;;26.33;5.13;;;;;;;8.15;100.00;102191.72;5069521;28;20055;-37
2022/01/29 07:53:08;;;;;;;23.98;5.25;;;;;;;8.20;100.00;102175.13;5068749;28;20083;-37
2022/01/29 07:55:38;;;;;;;31.38;4.82;;;;;;;8.25;100.00;102191.91;5069543;28;20113;-35
2022/01/29 07:58:05;;;;;;;24.33;4.47;;;;;;;8.26;100.00;102182.47;5069459;28;20044;-31
2022/01/29 08:00:35;;;;;;;23.40;4.80;;;;;;;8.26;100.00;102190.81;5068750;28;20044;-34
2022/01/29 08:03:04;;;;;;;25.42;4.60;;;;;;;8.27;100.00;102185.00;5069271;28;20055;-31
2022/01/29 08:05:33;;;;;;;23.77;4.15;;;;;;;8.29;100.00;102191.16;5069010;28;20087;-39
2022/01/29 08:08:01;;;;;;;18.95;4.00;;;;;;;8.30;100.00;102176.16;5068209;28;20052;-34
2022/01/29 08:10:29;;;;;;;24.20;4.35;;;;;;;8.32;100.00;102183.41;5069598;28;20473;-37
2022/01/29 08:12:58;;;;;;;26.23;4.65;;;;;;;8.27;100.00;102173.88;5069089;28;20045;-34
2022/01/29 08:15:26;;;;;;;27.77;4.15;;;;;;;8.29;100.00;102168.06;5068719;28;20049;-36
2022/01/29 08:17:54;;;;;;;22.90;3.90;;;;;;;8.28;100.00;102158.03;5068086;28;20049;-33
2022/01/29 08:20:22;;;;;;;24.02;3.83;;;;;;;8.31;100.00;102165.88;5069192;28;20055;-37
2022/01/29 08:22:50;;;;;;;26.55;4.22;;;;;;;8.28;100.00;102161.66;5068229;28;20051;-36
2022/01/29 08:25:18;;;;;;;19.60;4.00;;;;;;;8.30;100.00;102159.47;5069267;28;20044;-38
2022/01/29 08:27:46;;;;;;;29.17;4.85;;;;;;;8.28;100.00;102155.25;5066164;28;20048;-36
2022/01/29 08:30:15;;;;;;;25.00;3.67;;;;;;;8.33;100.00;102155.38;5069056;28;20039;-36
2022/01/29 08:32:43;;;;;;;19.60;3.50;;;;;;;8.39;100.00;102153.53;5068765;28;20417;-35
2022/01/29 08:35:13;;;;;;;25.33;4.10;;;;;;;8.42;100.00;102141.88;5068315;28;20040;-31
2022/01/29 08:37:41;;;;;;;20.40;3.75;;;;;;;8.46;100.00;102141.13;5072252;28;20051;-34
2022/01/29 08:40:10;;;;;;;20.05;3.33;;;;;;;8.48;100.00;102126.97;5072750;28;20040;-41
2022/01/29 08:42:38;;;;;;;21.45;3.42;;;;;;;8.49;100.00;102129.47;5071675;28;20094;-36
2022/01/29 08:45:08;;;;;;;21.67;3.90;;;;;;;8.51;100.00;102118.94;5070995;28;20053;-34
2022/01/29 08:47:40;;;;;;;22.38;3.45;;;;;;;8.52;100.00;102117.00;5072988;28;20048;-36
2022/01/29 08:50:09;;;;;;;23.63;3.67;;;;;;;8.54;100.00;102118.44;5071905;28;20202;-36
2022/01/29 08:52:37;;;;;;;25.55;3.65;;;;;;;8.52;100.00;102117.00;5072604;28;20054;-35
2022/01/29 08:55:06;;;;;;;24.00;4.13;;;;;;;8.50;100.00;102114.47;5073042;28;20048;-31
2022/01/29 08:57:34;;;;;;;27.02;4.30;;;;;;;8.49;100.00;102110.00;5072934;28;20049;-34
2022/01/29 09:00:04;;;;;;;25.20;3.85;;;;;;;8.49;100.00;102114.72;5073456;28;20059;-33
2022/01/29 09:02:32;;;;;;;22.90;4.10;;;;;;;8.48;100.00;102116.66;5073467;28;20497;-37
2022/01/29 09:05:01;;;;;;;24.38;3.67;;;;;;;8.48;100.00;102113.03;5072648;28;20047;-34
2022/01/29 09:07:29;;;;;;;22.25;3.70;;;;;;;8.44;100.00;102095.19;5072827;28;20047;-33
2022/01/29 09:09:57;;;;;;;22.95;3.63;;;;;;;8.46;100.00;102093.81;5072648;28;20067;-32
2022/01/29 09:12:25;;;;;;;25.65;4.55;;;;;;;8.48;100.00;102091.63;5073330;28;20049;-39
2022/01/29 09:14:52;;;;;;;25.50;3.55;;;;;;;8.49;100.00;102068.28;5072762;28;20098;-35
2022/01/29 09:17:20;;;;;;;17.80;3.00;;;;;;;8.51;100.00;102062.47;5072412;28;20072;-33
2022/01/29 09:19:48;;;;;;;17.50;3.13;;;;;;;8.54;100.00;102061.97;5072815;28;20065;-35
2022/01/29 09:22:17;;;;;;;19.80;3.05;;;;;;;8.59;100.00;102048.94;5072871;28;20047;-35
2022/01/29 09:24:45;;;;;;;28.20;3.90;;;;;;;8.75;100.00;102051.94;5072190;28;20041;-40
2022/01/29 09:27:13;;;;;;;23.02;4.00;;;;;;;9.00;100.00;102055.03;5072977;28;20056;-35
2022/01/29 09:29:40;;;;;;;23.20;4.15;;;;;;;9.08;100.00;102040.69;5072980;28;20048;-34
2022/01/29 09:32:08;;;;;;;20.73;3.33;;;;;;;9.07;100.00;102038.16;5071843;28;20045;-33
2022/01/29 09:34:36;;;;;;;20.08;3.50;;;;;;;9.02;100.00;102041.72;5073105;28;20347;-32
2022/01/29 09:37:04;;;;;;;22.15;3.38;;;;;;;9.06;100.00;102020.59;5073038;28;20041;-32
2022/01/29 09:39:33;;;;;;;17.92;3.10;;;;;;;9.13;100.00;102023.19;5072277;28;20052;-33
2022/01/29 09:42:01;;;;;;;22.70;3.22;;;;;;;9.32;100.00;102016.16;5071560;28;20576;-32
2022/01/29 09:44:30;;;;;;;23.52;3.33;;;;;;;9.64;100.00;102018.97;5072507;28;20409;-37
2022/01/29 09:46:59;;;;;;;22.08;3.30;;;;;;;9.94;100.00;102024.81;5070751;28;20508;-35
2022/01/29 09:49:30;;;;;;;19.30;2.78;;;;;;;10.22;100.00;102025.59;5072029;28;20051;-32
2022/01/29 09:51:58;;;;;;;23.38;3.22;;;;;;;10.44;100.00;102014.31;5071924;28;20053;-34
2022/01/29 09:54:25;;;;;;;18.27;3.80;;;;;;;10.74;100.00;102017.28;5072409;28;20489;-41
2022/01/29 09:56:54;;;;;;;22.80;3.05;;;;;;;10.99;100.00;102008.16;5072503;28;20056;-33
2022/01/29 09:59:22;;;;;;;18.60;2.92;;;;;;;11.16;100.00;102010.72;5071464;28;20123;-38
2022/01/29 10:01:50;;;;;;;18.23;2.85;;;;;;;11.27;100.00;101988.13;5072222;28;20048;-41
2022/01/29 10:04:18;;;;;;;18.55;2.95;;;;;;;11.29;100.00;101988.69;5072397;28;20052;-37
2022/01/29 10:07:06;;;;;;;15.98;3.17;;;;;;;11.36;100.00;101989.25;5071524;28;20418;-39
2022/01/29 10:09:34;;;;;;;18.73;3.05;;;;;;;11.46;100.00;102008.00;5072060;28;20062;-34
2022/01/29 10:12:17;;;;;;;15.60;2.42;;;;;;;11.68;100.00;102004.94;5072208;28;20056;-39
2022/01/29 10:14:49;;;;;;;18.77;3.50;;;;;;;11.83;100.00;102004.13;5071416;28;20058;-34
2022/01/29 10:17:54;;;;;;;21.67;3.50;;;;;;;11.82;100.00;102000.50;5072125;28;20066;-42
2022/01/29 10:20:23;;;;;;;14.70;3.08;;;;;;;11.60;100.00;102009.13;5067641;28;20406;-35
2022/01/29 10:22:53;;;;;;;17.25;3.00;;;;;;;11.66;100.00;102012.75;5071769;28;20501;-39
2022/01/29 10:25:23;;;;;;;13.93;2.80;;;;;;;11.66;100.00;101995.97;5071753;28;20041;-37
2022/01/29 10:28:13;;;;;;;19.58;3.28;;;;;;;11.65;100.00;101997.09;5071106;28;20041;-35
2022/01/29 10:31:02;;;;;;;16.80;2.92;;;;;;;11.54;100.00;101996.28;5071518;28;20041;-36
2022/01/29 10:33:31;;;;;;;17.17;3.00;;;;;;;11.46;100.00;101990.38;5072126;28;20044;-38
2022/01/29 10:36:01;;;;;;;18.63;3.38;;;;;;;11.42;100.00;102001.25;5071271;28;20059;-40
2022/01/29 10:38:30;;;;;;;17.00;2.65;;;;;;;11.49;100.00;102001.00;5071320;28;20044;-37
2022/01/29 10:41:12;;;;;;;16.23;2.88;;;;;;;11.54;100.00;101984.25;5071738;28;20053;-35
2022/01/29 10:43:57;;;;;;;20.90;2.60;;;;;;;11.47;100.00;101990.09;5071382;28;20051;-37
2022/01/29 10:46:27;;;;;;;14.82;2.90;;;;;;;11.43;100.00;101988.13;5068815;28;20147;-34
2022/01/29 10:48:55;;;;;;;17.67;2.80;;;;;;;11.38;100.00;101981.44;5070261;28;20051;-40
2022/01/29 10:51:22;;;;;;;12.25;2.53;;;;;;;11.18;100.00;101969.38;5071455;28;20045;-31
2022/01/29 10:53:51;;;;;;;25.05;3.50;;;;;;;10.99;100.00;101960.69;5071318;28;20051;-31
2022/01/29 10:56:19;;;;;;;16.17;2.80;;;;;;;10.83;100.00;101954.19;5070896;28;20051;-41
2022/01/29 10:58:50;;;;;;;16.65;2.97;;;;;;;10.68;100.00;101959.72;5071068;28;20057;-33
2022/01/29 11:01:22;;;;;;;16.38;2.83;;;;;;;10.56;100.00;101954.38;5071356;28;20165;-37
2022/01/29 11:03:52;;;;;;;19.67;3.53;;;;;;;10.48;100.00;101948.47;5070479;28;20501;-33
2022/01/29 11:06:28;;;;;;;17.33;3.25;;;;;;;10.53;100.00;101940.97;5071014;28;20048;-36
2022/01/29 11:08:56;;;;;;;14.20;2.45;;;;;;;10.70;100.00;101955.56;5071181;28;20059;-36
2022/01/29 11:11:24;;;;;;;17.80;3.50;;;;;;;10.92;100.00;101940.53;5070641;28;20062;-33
2022/01/29 11:14:12;;;;;;;15.23;2.42;;;;;;;11.14;100.00;101924.41;5064418;28;20063;-39
2022/01/29 11:16:44;;;;;;;18.88;2.97;;;;;;;11.11;100.00;101916.56;5070149;28;20557;-39
2022/01/29 11:19:12;;;;;;;18.50;3.37;;;;;;;11.16;100.00;101905.41;5071128;28;20040;-37
2022/01/29 11:21:42;;;;;;;21.02;3.72;;;;;;;11.17;100.00;101903.44;5070960;28;20287;-33
2022/01/29 11:24:12;;;;;;;24.00;4.00;;;;;;;11.19;100.00;101907.63;5070321;28;20047;-42
2022/01/29 11:26:40;;;;;;;17.80;3.30;;;;;;;11.22;100.00;101893.09;5070902;28;20044;-39
2022/01/29 11:29:26;;;;;;;13.55;2.60;;;;;;;11.25;100.00;101900.94;5070684;28;20409;-38
2022/01/29 11:32:32;;;;;;;21.30;3.28;;;;;;;11.16;100.00;101927.75;5070476;28;20393;-39
2022/01/29 11:35:08;;;;;;;20.05;3.35;;;;;;;11.05;100.00;101929.69;5065033;28;20047;-37